Time;durP1;ratioP1;P1;durP2;ratioP2;P2;SDS_P1;SDS_P2;PMS_P1;PMS_P2;Temp;Humidity;BMP_temperature;BMP_pressure;BME280_temperature;BME280_humidity;BME280_pressure;Samples;Min_cycle;Max_cycle;Signal;HPM_P1;HPM_P2
2021/11/28 00:01:18;;;;;;;21.88;10.40;;;-1.80;99.90;;;;;;4962965;28;20059;-68
2021/11/28 00:03:46;;;;;;;25.65;9.57;;;-1.80;99.90;;;;;;4961736;28;20443;-67
2021/11/28 00:06:23;;;;;;;23.65;8.55;;;-1.90;99.90;;;;;;4960605;28;20054;-66
2021/11/28 00:11:36;;;;;;;24.52;9.80;;;-2.20;99.90;;;;;;4963433;28;20349;-67
2021/11/28 00:14:11;;;;;;;18.23;9.77;;;-2.10;99.90;;;;;;4962814;28;20153;-66
2021/11/28 00:16:38;;;;;;;;;;;-1.90;99.90;;;;;;4962065;28;20072;-67
2021/11/28 00:19:06;;;;;;;26.30;11.02;;;-1.90;99.90;;;;;;4962519;28;19922;-66
2021/11/28 00:21:34;;;;;;;24.75;9.85;;;-1.80;99.90;;;;;;4956780;28;20059;-67
2021/11/28 00:24:01;;;;;;;28.35;9.70;;;-1.80;99.90;;;;;;4958150;28;20062;-66
2021/11/28 00:26:28;;;;;;;23.33;9.43;;;-1.70;99.90;;;;;;4962202;28;20366;-66
2021/11/28 00:28:55;;;;;;;23.67;9.35;;;-1.60;99.90;;;;;;4968906;28;20140;-65
2021/11/28 00:31:22;;;;;;;20.90;8.63;;;-1.50;99.90;;;;;;4980290;28;20057;-65
2021/11/28 00:33:49;;;;;;;22.10;9.35;;;-1.50;99.90;;;;;;4964318;28;20065;-65
2021/11/28 00:36:16;;;;;;;18.58;8.30;;;-1.50;99.90;;;;;;4945715;28;20566;-66
2021/11/28 00:38:42;;;;;;;20.10;9.00;;;-1.50;99.90;;;;;;4960516;28;20057;-68
2021/11/28 00:41:09;;;;;;;20.23;8.80;;;-1.30;99.90;;;;;;4960293;28;20050;-68
2021/11/28 00:43:36;;;;;;;26.98;9.88;;;-1.20;99.90;;;;;;4962815;28;20047;-66
2021/11/28 00:46:03;;;;;;;24.83;10.07;;;-1.10;99.90;;;;;;4978006;28;20051;-66
2021/11/28 00:48:31;;;;;;;24.95;10.30;;;-1.00;99.90;;;;;;4961261;28;20055;-67
2021/11/28 00:53:58;;;;;;;18.58;7.95;;;-0.90;99.90;;;;;;4929950;28;20077;-67
2021/11/28 00:56:25;;;;;;;19.70;8.07;;;-1.00;99.90;;;;;;4961683;28;20057;-66
2021/11/28 00:58:51;;;;;;;12.77;7.45;;;-1.10;99.90;;;;;;4945412;28;20069;-68
2021/11/28 01:01:18;;;;;;;12.25;6.80;;;-1.00;99.90;;;;;;4975846;28;20153;-68
2021/11/28 01:03:46;;;;;;;16.77;7.65;;;-0.90;99.90;;;;;;4960169;28;20054;-66
2021/11/28 01:06:13;;;;;;;16.13;6.95;;;-1.00;99.90;;;;;;4963974;28;20061;-69
2021/11/28 01:08:40;;;;;;;17.70;7.03;;;-0.90;99.90;;;;;;4968137;28;20058;-67
2021/11/28 01:11:07;;;;;;;19.17;7.93;;;-0.90;99.90;;;;;;4965929;28;20061;-67
2021/11/28 01:13:34;;;;;;;17.55;8.05;;;-0.80;99.90;;;;;;4961334;28;20083;-67
2021/11/28 01:16:01;;;;;;;23.05;8.43;;;-0.70;99.90;;;;;;4945948;28;20141;-66
2021/11/28 01:18:32;;;;;;;19.48;7.60;;;-0.70;99.90;;;;;;4963454;28;20055;-68
2021/11/28 01:21:00;;;;;;;23.30;8.77;;;-0.60;99.90;;;;;;4959771;28;20061;-66
2021/11/28 01:23:27;;;;;;;19.08;7.15;;;-0.60;99.90;;;;;;4963315;28;20047;-67
2021/11/28 01:25:54;;;;;;;18.55;7.90;;;-0.50;99.90;;;;;;4962282;28;20051;-68
2021/11/28 01:28:21;;;;;;;27.25;10.18;;;-0.50;99.90;;;;;;4943274;28;20508;-67
2021/11/28 01:30:48;;;;;;;31.05;12.60;;;-0.60;99.90;;;;;;4959007;28;20053;-66
2021/11/28 01:33:15;;;;;;;22.90;10.73;;;-0.70;99.90;;;;;;4945961;28;20137;-67
2021/11/28 01:35:42;;;;;;;23.02;9.57;;;-0.60;99.90;;;;;;4939576;28;20697;-67
2021/11/28 01:38:09;;;;;;;20.58;8.25;;;-0.60;99.90;;;;;;4941152;28;20456;-66
2021/11/28 01:40:36;;;;;;;20.65;8.93;;;-0.60;99.90;;;;;;4922437;28;20070;-66
2021/11/28 01:43:12;;;;;;;26.83;10.77;;;-0.70;99.90;;;;;;4926069;29;20047;-66
2021/11/28 01:45:40;;;;;;;17.27;8.50;;;-0.70;99.90;;;;;;4946303;28;20429;-68
2021/11/28 01:48:12;;;;;;;18.80;8.98;;;-0.70;99.90;;;;;;4927966;28;20523;-68
2021/11/28 01:50:42;;;;;;;17.33;8.07;;;-0.70;99.90;;;;;;4927283;28;20359;-67
2021/11/28 01:53:21;;;;;;;19.25;8.70;;;-0.60;99.90;;;;;;4905254;29;20055;-68
2021/11/28 01:55:48;;;;;;;21.40;8.55;;;-0.70;99.90;;;;;;4929677;28;20039;-68
2021/11/28 01:58:23;;;;;;;17.58;7.90;;;-0.90;99.90;;;;;;4969270;28;20306;-68
2021/11/28 02:00:59;;;;;;;18.30;7.50;;;-0.90;99.90;;;;;;4958586;28;20154;-68
2021/11/28 02:03:28;;;;;;;15.40;7.32;;;-1.00;99.90;;;;;;4944026;28;20515;-68
2021/11/28 02:05:58;;;;;;;13.82;7.85;;;-1.10;99.90;;;;;;4960935;28;20070;-65
2021/11/28 02:08:27;;;;;;;30.00;8.85;;;-1.10;99.90;;;;;;4942258;28;20196;-67
2021/11/28 02:10:53;;;;;;;17.70;7.18;;;-1.00;99.90;;;;;;4959869;28;20051;-67
2021/11/28 02:13:22;;;;;;;22.33;7.00;;;-0.90;99.90;;;;;;4941691;28;20085;-67
2021/11/28 02:15:50;;;;;;;21.42;7.70;;;-1.00;99.90;;;;;;4938016;28;20059;-66
2021/11/28 02:18:20;;;;;;;17.63;7.80;;;-1.10;99.90;;;;;;4959974;28;20047;-67
2021/11/28 02:20:49;;;;;;;16.83;7.63;;;-1.10;99.90;;;;;;4954412;28;20054;-65
2021/11/28 02:23:17;;;;;;;25.15;8.43;;;-1.20;99.90;;;;;;4943799;28;20086;-67
2021/11/28 02:25:44;;;;;;;15.98;9.57;;;-1.30;99.90;;;;;;4944222;28;20047;-68
2021/11/28 02:28:14;;;;;;;14.38;6.97;;;-1.20;99.90;;;;;;4955505;28;20095;-66
2021/11/28 02:30:42;;;;;;;17.63;7.22;;;-1.20;99.90;;;;;;4942143;28;20169;-68
2021/11/28 02:33:09;;;;;;;17.33;7.10;;;-1.30;99.90;;;;;;4961017;28;20043;-66
2021/11/28 02:35:36;;;;;;;17.73;8.00;;;-1.40;99.90;;;;;;4958982;28;20369;-68
2021/11/28 02:38:05;;;;;;;15.15;7.65;;;-1.30;99.90;;;;;;4956199;28;20125;-65
2021/11/28 02:40:35;;;;;;;23.42;7.40;;;-1.40;99.90;;;;;;4923654;28;20483;-65
2021/11/28 02:43:04;;;;;;;22.40;7.63;;;-1.50;99.90;;;;;;4962707;28;20062;-66
2021/11/28 02:45:33;;;;;;;19.15;7.18;;;-1.50;99.90;;;;;;4942339;28;20463;-67
2021/11/28 02:48:04;;;;;;;19.17;8.40;;;-1.60;99.90;;;;;;4942146;28;20058;-66
2021/11/28 02:50:31;;;;;;;18.20;9.93;;;-1.70;99.90;;;;;;4943101;28;20423;-67
2021/11/28 02:53:01;;;;;;;21.58;8.70;;;-1.70;99.90;;;;;;4960405;28;20444;-67
2021/11/28 02:55:44;;;;;;;15.60;7.90;;;-1.50;99.90;;;;;;4947088;28;20113;-66
2021/11/28 02:58:14;;;;;;;17.98;7.63;;;-1.40;99.90;;;;;;4928348;28;20054;-66
2021/11/28 03:00:47;;;;;;;16.83;7.68;;;-1.60;99.90;;;;;;4962035;28;20407;-68
2021/11/28 03:03:15;;;;;;;27.83;8.88;;;-1.60;99.90;;;;;;4963502;28;20055;-67
2021/11/28 03:05:42;;;;;;;18.10;7.93;;;-1.60;99.90;;;;;;4962227;28;20057;-66
2021/11/28 03:08:12;;;;;;;24.10;8.30;;;-1.60;99.90;;;;;;4974905;28;20089;-65
2021/11/28 03:10:46;;;;;;;19.42;8.13;;;-1.50;99.90;;;;;;4955480;28;20070;-67
2021/11/28 03:13:25;;;;;;;14.80;7.63;;;-1.20;99.90;;;;;;4944312;28;20412;-65
2021/11/28 03:15:59;;;;;;;18.05;8.50;;;-1.20;99.90;;;;;;4963940;28;20130;-66
2021/11/28 03:18:28;;;;;;;18.70;8.65;;;-1.40;99.90;;;;;;4962879;28;20055;-64
2021/11/28 03:20:58;;;;;;;23.90;9.32;;;-1.30;99.90;;;;;;4941280;28;20400;-66
2021/11/28 03:23:28;;;;;;;23.13;9.52;;;-1.30;99.90;;;;;;4964315;28;20059;-66
2021/11/28 03:26:27;;;;;;;17.80;9.60;;;-1.20;99.90;;;;;;4964229;28;20061;-65
2021/11/28 03:29:03;;;;;;;27.73;8.82;;;-1.40;99.90;;;;;;4929337;28;20058;-66
2021/11/28 03:31:51;;;;;;;23.30;8.95;;;-1.30;99.90;;;;;;4962960;28;20078;-65
2021/11/28 03:34:36;;;;;;;21.90;9.02;;;-1.50;99.90;;;;;;4963951;28;20286;-67
2021/11/28 03:37:17;;;;;;;25.77;9.88;;;-1.70;99.90;;;;;;4945277;28;20070;-66
2021/11/28 03:39:44;;;;;;;19.52;8.05;;;-1.60;99.90;;;;;;4962667;28;20281;-68
2021/11/28 03:42:10;;;;;;;21.10;7.70;;;-1.80;99.90;;;;;;4978264;28;20046;-67
2021/11/28 03:44:42;;;;;;;86.90;13.68;;;-1.70;99.90;;;;;;4962639;28;22248;-66
2021/11/28 03:47:12;;;;;;;16.23;8.70;;;-1.80;99.90;;;;;;4914380;28;20082;-64
2021/11/28 03:49:41;;;;;;;16.55;7.22;;;-1.80;99.90;;;;;;4926475;29;20051;-67
2021/11/28 03:52:08;;;;;;;20.63;8.02;;;-2.00;99.90;;;;;;4957932;28;20051;-68
2021/11/28 03:54:36;;;;;;;19.88;7.93;;;-2.00;99.90;;;;;;4960057;28;20058;-67
2021/11/28 03:57:05;;;;;;;19.80;8.77;;;-2.00;99.90;;;;;;4961546;28;20114;-67
2021/11/28 03:59:32;;;;;;;22.40;7.57;;;-2.00;99.90;;;;;;4960279;28;20193;-67
2021/11/28 04:01:59;;;;;;;15.70;6.35;;;-2.10;99.90;;;;;;4962185;28;20141;-67
2021/11/28 04:04:26;;;;;;;14.02;7.90;;;-2.20;99.90;;;;;;4946555;28;20113;-67
2021/11/28 04:07:05;;;;;;;20.25;7.20;;;-2.20;99.90;;;;;;4962772;28;20047;-64
2021/11/28 04:09:34;;;;;;;19.20;7.45;;;-2.10;99.90;;;;;;4945504;28;20061;-65
2021/11/28 04:12:05;;;;;;;16.48;7.63;;;-2.00;99.90;;;;;;4944439;28;20050;-64
2021/11/28 04:14:31;;;;;;;17.75;7.28;;;-2.00;99.90;;;;;;4944459;28;20050;-64
2021/11/28 04:16:58;;;;;;;17.50;7.57;;;-2.00;99.90;;;;;;4961863;28;20467;-67
2021/11/28 04:19:28;;;;;;;18.70;7.13;;;-1.90;99.90;;;;;;4961143;28;20050;-66
2021/11/28 04:21:55;;;;;;;21.17;7.18;;;-1.90;99.90;;;;;;4943676;28;20099;-65
2021/11/28 04:24:24;;;;;;;13.65;8.02;;;-2.00;99.90;;;;;;4962243;28;20113;-66
2021/11/28 04:26:53;;;;;;;19.75;10.23;;;-2.10;99.90;;;;;;4961170;28;20081;-67
2021/11/28 04:29:20;;;;;;;25.25;10.73;;;-2.10;99.90;;;;;;4957759;28;20138;-67
2021/11/28 04:31:49;;;;;;;16.38;8.88;;;-2.10;99.90;;;;;;4962218;28;20078;-66
2021/11/28 04:34:18;;;;;;;23.63;9.27;;;-2.00;99.90;;;;;;4961837;28;20058;-66
2021/11/28 04:36:45;;;;;;;25.92;10.23;;;-1.90;99.90;;;;;;4959792;28;20578;-67
2021/11/28 04:39:14;;;;;;;20.77;9.45;;;-1.80;99.90;;;;;;4961125;28;20051;-65
2021/11/28 04:41:41;;;;;;;27.85;10.00;;;-1.80;99.90;;;;;;4959359;28;20047;-66
2021/11/28 04:44:09;;;;;;;25.25;7.88;;;-1.70;99.90;;;;;;4947131;28;20120;-67
2021/11/28 04:46:37;;;;;;;20.90;8.38;;;-1.70;99.90;;;;;;4961429;28;20047;-66
2021/11/28 04:49:05;;;;;;;23.75;8.20;;;-1.70;99.90;;;;;;4961190;28;20145;-67
2021/11/28 04:51:35;;;;;;;18.65;7.97;;;-1.70;99.90;;;;;;4945036;28;20558;-66
2021/11/28 04:54:03;;;;;;;20.30;9.57;;;-1.80;99.90;;;;;;4962765;28;20062;-65
2021/11/28 04:56:30;;;;;;;19.90;8.80;;;-1.90;99.90;;;;;;4953378;28;20039;-66
2021/11/28 04:58:57;;;;;;;18.23;8.65;;;-1.80;99.90;;;;;;4960352;28;20051;-65
2021/11/28 05:01:26;;;;;;;20.92;9.80;;;-1.80;99.90;;;;;;4958778;28;20388;-67
2021/11/28 05:04:06;;;;;;;28.08;9.93;;;-1.70;99.90;;;;;;4963866;28;20058;-67
2021/11/28 05:06:35;;;;;;;17.58;8.60;;;-1.80;99.90;;;;;;4961307;28;20051;-67
2021/11/28 05:09:15;;;;;;;21.33;10.18;;;-1.70;99.90;;;;;;4961389;28;20061;-67
2021/11/28 05:11:42;;;;;;;21.33;10.98;;;-1.70;99.90;;;;;;4960006;28;20136;-65
2021/11/28 05:14:09;;;;;;;20.92;9.27;;;-1.70;99.90;;;;;;4975418;28;20045;-67
2021/11/28 05:16:38;;;;;;;23.83;10.52;;;-1.80;99.90;;;;;;4957266;28;20339;-66
2021/11/28 05:19:31;;;;;;;22.92;10.68;;;-1.80;99.90;;;;;;4960459;28;20081;-66
2021/11/28 05:22:06;;;;;;;22.67;11.27;;;-1.80;99.90;;;;;;4945028;28;20046;-68
2021/11/28 05:24:43;;;;;;;27.23;12.20;;;-1.70;99.90;;;;;;4957742;28;20063;-68
2021/11/28 05:27:10;;;;;;;28.58;13.00;;;-1.70;99.90;;;;;;4943407;28;20046;-66
2021/11/28 05:29:37;;;;;;;30.25;12.80;;;-1.60;99.90;;;;;;4944649;28;20061;-65
2021/11/28 05:32:04;;;;;;;28.65;11.90;;;-1.60;99.90;;;;;;4959920;28;20499;-67
2021/11/28 05:34:38;;;;;;;20.73;11.05;;;-1.40;99.90;;;;;;4960211;28;20042;-65
2021/11/28 05:37:23;;;;;;;23.17;10.65;;;-1.60;99.90;;;;;;4958436;28;20055;-66
2021/11/28 05:39:57;;;;;;;20.80;11.07;;;-1.50;99.90;;;;;;4943543;28;20051;-66
2021/11/28 05:42:24;;;;;;;23.20;10.27;;;-1.40;99.90;;;;;;4943447;28;20183;-66
2021/11/28 05:44:51;;;;;;;24.92;11.32;;;-1.40;99.90;;;;;;4960140;28;20066;-67
2021/11/28 05:47:36;;;;;;;26.25;11.77;;;-1.30;99.90;;;;;;4961200;28;20050;-67
2021/11/28 05:50:17;;;;;;;29.92;14.55;;;-1.40;99.90;;;;;;4975824;28;20426;-68
2021/11/28 05:52:48;;;;;;;24.90;11.10;;;-1.40;99.90;;;;;;4976835;28;20483;-68
2021/11/28 05:55:15;;;;;;;24.30;11.55;;;-1.50;99.90;;;;;;4955817;28;20058;-67
2021/11/28 05:57:47;;;;;;;21.70;11.55;;;-1.50;99.90;;;;;;4943745;28;20042;-66
2021/11/28 06:00:16;;;;;;;22.58;10.48;;;-1.60;99.90;;;;;;4958982;28;20046;-66
2021/11/28 06:02:59;;;;;;;25.83;11.07;;;-1.50;99.90;;;;;;4930564;28;20125;-67
2021/11/28 06:05:36;;;;;;;21.67;11.20;;;-1.40;99.90;;;;;;4958751;28;20130;-67
2021/11/28 06:08:11;;;;;;;22.48;12.98;;;-1.30;99.90;;;;;;4958650;28;20503;-66
2021/11/28 06:10:38;;;;;;;33.63;15.30;;;-1.30;99.90;;;;;;4944041;28;20204;-66
2021/11/28 06:13:05;;;;;;;24.40;10.38;;;-1.30;99.90;;;;;;4942256;28;20055;-67
2021/11/28 06:15:32;;;;;;;26.08;11.27;;;-1.40;99.90;;;;;;4959912;28;20058;-66
2021/11/28 06:18:22;;;;;;;17.40;9.93;;;-1.40;99.90;;;;;;4938665;28;20066;-64
2021/11/28 06:21:08;;;;;;;25.75;10.23;;;-1.40;99.90;;;;;;4958836;28;20051;-67
2021/11/28 06:23:35;;;;;;;21.45;9.88;;;-1.40;99.90;;;;;;4944134;28;20070;-65
2021/11/28 06:26:02;;;;;;;17.17;9.05;;;-1.50;99.90;;;;;;4954275;28;20055;-65
2021/11/28 06:28:41;;;;;;;19.83;9.77;;;-1.30;99.90;;;;;;4955943;28;20156;-67
2021/11/28 06:31:08;;;;;;;19.40;9.43;;;-1.40;99.90;;;;;;4962721;28;20047;-66
2021/11/28 06:33:55;;;;;;;17.25;8.93;;;-1.50;99.90;;;;;;4962826;28;20046;-67
2021/11/28 06:36:57;;;;;;;21.10;9.73;;;-1.40;99.90;;;;;;4961130;28;20101;-66
2021/11/28 06:39:56;;;;;;;22.23;9.82;;;-1.40;99.90;;;;;;4948078;28;20527;-68
2021/11/28 06:42:32;;;;;;;27.50;12.73;;;-1.40;99.90;;;;;;4926497;29;21123;-66
2021/11/28 06:44:59;;;;;;;29.08;11.30;;;-1.40;99.90;;;;;;4944801;29;20051;-66
2021/11/28 06:47:44;;;;;;;20.27;10.32;;;-1.50;99.90;;;;;;4927407;29;20260;-66
2021/11/28 06:50:12;;;;;;;20.42;9.82;;;-1.50;99.90;;;;;;4945718;28;20500;-66
2021/11/28 06:53:00;;;;;;;15.43;9.13;;;-1.50;99.90;;;;;;4949338;28;20583;-67
2021/11/28 06:55:47;;;;;;;23.45;11.02;;;-1.30;99.90;;;;;;4923218;28;20055;-67
2021/11/28 06:58:36;;;;;;;25.80;12.82;;;-1.20;99.90;;;;;;4962110;28;20589;-67
2021/11/28 07:01:04;;;;;;;43.05;19.00;;;-1.10;99.90;;;;;;4930203;28;20043;-66
2021/11/28 07:03:32;;;;;;;95.85;34.92;;;-1.20;99.90;;;;;;4962602;28;20069;-67
2021/11/28 07:06:22;;;;;;;108.22;46.85;;;-1.20;99.90;;;;;;4931548;28;20043;-66
2021/11/28 07:08:55;;;;;;;32.63;13.98;;;-1.20;99.90;;;;;;4944354;28;20066;-65
2021/11/28 07:11:22;;;;;;;45.78;19.20;;;-1.20;99.90;;;;;;4920342;29;20146;-68
2021/11/28 07:13:51;;;;;;;34.70;13.10;;;-1.20;99.90;;;;;;4940961;29;20137;-68
2021/11/28 07:16:19;;;;;;;26.27;12.30;;;-1.10;99.90;;;;;;4943904;28;20118;-68
2021/11/28 07:18:48;;;;;;;21.58;10.48;;;-1.10;99.90;;;;;;4912096;29;20051;-67
2021/11/28 07:21:27;;;;;;;36.05;15.68;;;-1.10;99.90;;;;;;4924251;29;20058;-65
2021/11/28 07:23:54;;;;;;;30.73;14.48;;;-1.10;99.90;;;;;;4928136;29;20409;-66
2021/11/28 07:26:22;;;;;;;31.65;14.10;;;-1.10;99.90;;;;;;4939058;28;20054;-67
2021/11/28 07:28:51;;;;;;;35.13;16.27;;;-1.00;99.90;;;;;;4923258;28;20078;-65
2021/11/28 07:31:20;;;;;;;36.67;17.55;;;-1.00;99.90;;;;;;4928967;28;20122;-66
2021/11/28 07:34:06;;;;;;;35.92;16.85;;;-1.00;99.90;;;;;;4946902;28;20059;-66
2021/11/28 07:37:11;;;;;;;27.52;14.38;;;-1.00;99.90;;;;;;4946683;28;20055;-66
2021/11/28 07:39:39;;;;;;;38.95;18.75;;;-1.00;99.90;;;;;;4924649;29;20162;-67
2021/11/28 07:42:07;;;;;;;46.50;21.55;;;-1.00;99.90;;;;;;4938503;28;20070;-66
2021/11/28 07:44:53;;;;;;;45.28;23.40;;;-1.00;99.90;;;;;;4961509;28;20046;-66
2021/11/28 07:47:55;;;;;;;45.08;20.80;;;-1.00;99.90;;;;;;4902428;29;20067;-66
2021/11/28 07:50:31;;;;;;;42.08;18.40;;;-1.00;99.90;;;;;;4951787;28;20047;-67
2021/11/28 07:52:57;;;;;;;36.72;15.35;;;-1.00;99.90;;;;;;4946034;28;20109;-67
2021/11/28 07:55:27;;;;;;;27.75;10.57;;;-0.80;99.90;;;;;;4962523;28;20154;-67
2021/11/28 07:57:58;;;;;;;25.55;11.95;;;-1.00;99.90;;;;;;4961784;28;20050;-66
2021/11/28 08:00:35;;;;;;;26.60;12.30;;;-1.10;99.90;;;;;;4961685;28;20332;-66
2021/11/28 08:03:29;;;;;;;26.10;13.55;;;-1.10;99.90;;;;;;4962199;28;20055;-65
2021/11/28 08:06:14;;;;;;;27.42;15.07;;;-1.10;99.90;;;;;;4960998;28;20053;-65
2021/11/28 08:09:02;;;;;;;30.73;15.10;;;-1.00;99.90;;;;;;4957719;28;20385;-67
2021/11/28 08:11:32;;;;;;;38.45;16.23;;;-1.00;99.90;;;;;;4946192;28;20046;-66
2021/11/28 08:13:59;;;;;;;30.90;14.57;;;-0.90;99.90;;;;;;4960126;28;20055;-65
2021/11/28 08:16:27;;;;;;;28.42;15.65;;;-0.70;99.90;;;;;;4964173;28;20050;-67
2021/11/28 08:18:54;;;;;;;44.45;21.67;;;-0.60;99.90;;;;;;4962341;28;20077;-66
2021/11/28 08:21:26;;;;;;;61.65;31.17;;;-0.50;99.90;;;;;;4962089;28;20050;-66
2021/11/28 08:23:55;;;;;;;63.53;32.17;;;-0.50;99.90;;;;;;4963877;28;20139;-67
2021/11/28 08:26:22;;;;;;;126.28;67.63;;;-0.30;99.90;;;;;;4960511;28;20070;-66
2021/11/28 08:28:51;;;;;;;92.13;48.92;;;-0.10;99.90;;;;;;4960655;28;20175;-65
2021/11/28 08:31:18;;;;;;;63.08;33.35;;;0.20;99.90;;;;;;4961802;28;20141;-64
2021/11/28 08:34:14;;;;;;;49.80;28.70;;;0.40;99.90;;;;;;4925139;28;20069;-66
2021/11/28 08:37:02;;;;;;;50.95;26.65;;;0.70;99.90;;;;;;4958969;28;20043;-65
2021/11/28 08:39:29;;;;;;;42.90;25.02;;;0.80;99.90;;;;;;4962272;28;20047;-67
2021/11/28 08:41:56;;;;;;;37.92;22.35;;;1.10;99.90;;;;;;4960308;28;20418;-67
2021/11/28 08:44:23;;;;;;;32.42;22.05;;;1.40;99.90;;;;;;4946738;28;20067;-68
2021/11/28 08:46:50;;;;;;;32.10;21.52;;;1.50;99.90;;;;;;4962165;28;20047;-66
2021/11/28 08:49:18;;;;;;;32.13;19.80;;;1.90;99.90;;;;;;4960205;28;20054;-67
2021/11/28 08:51:45;;;;;;;37.42;21.38;;;2.10;99.90;;;;;;4960447;28;20046;-66
2021/11/28 08:54:13;;;;;;;64.15;22.35;;;2.40;99.90;;;;;;4963865;28;20051;-67
2021/11/28 08:56:42;;;;;;;25.00;14.43;;;2.70;99.90;;;;;;4960474;28;20058;-67
2021/11/28 08:59:10;;;;;;;17.17;14.30;;;3.10;99.90;;;;;;4977084;28;20057;-67
2021/11/28 09:01:37;;;;;;;28.10;17.05;;;3.40;99.90;;;;;;4960849;28;20042;-66
2021/11/28 09:04:05;;;;;;;31.55;21.40;;;3.50;99.90;;;;;;4959313;28;20133;-66
2021/11/28 09:06:32;;;;;;;34.80;24.20;;;3.50;99.90;;;;;;4961213;28;20138;-66
2021/11/28 09:08:59;;;;;;;34.05;22.17;;;3.50;99.90;;;;;;4962197;28;20058;-65
2021/11/28 09:11:26;;;;;;;37.58;23.77;;;3.50;99.90;;;;;;4960292;28;20050;-66
2021/11/28 09:13:53;;;;;;;38.10;25.00;;;3.50;99.90;;;;;;4961648;28;20062;-66
2021/11/28 09:16:20;;;;;;;31.55;21.13;;;3.40;99.90;;;;;;4962606;28;20495;-65
2021/11/28 09:19:12;;;;;;;23.80;17.83;;;3.40;99.90;;;;;;4959861;28;20082;-64
2021/11/28 09:21:39;;;;;;;22.75;16.52;;;3.20;99.90;;;;;;4960533;28;20424;-65
2021/11/28 09:26:51;;;;;;;31.95;19.33;;;3.10;99.90;;;;;;4959472;28;20651;-64
2021/11/28 09:29:18;;;;;;;27.30;17.55;;;3.00;99.90;;;;;;4961457;28;20050;-66
2021/11/28 09:31:45;;;;;;;26.83;16.83;;;2.90;99.90;;;;;;4976604;28;20129;-64
2021/11/28 09:34:13;;;;;;;25.95;17.58;;;2.90;99.90;;;;;;4979173;28;20101;-63
2021/11/28 09:36:40;;;;;;;29.77;21.80;;;2.90;99.90;;;;;;4960025;28;20051;-65
2021/11/28 09:39:07;;;;;;;31.15;20.08;;;2.80;99.90;;;;;;4960398;28;20053;-65
2021/11/28 09:42:20;;;;;;;23.35;16.73;;;2.80;99.90;;;;;;4959003;28;20583;-66
2021/11/28 09:44:48;;;;;;;30.45;17.92;;;2.80;99.90;;;;;;4961482;28;20085;-66
2021/11/28 09:47:16;;;;;;;28.77;17.50;;;2.80;99.90;;;;;;4959670;28;20343;-65
2021/11/28 09:49:44;;;;;;;17.80;11.88;;;2.80;99.90;;;;;;4959860;28;20058;-64
2021/11/28 09:52:18;;;;;;;18.17;11.63;;;2.80;99.90;;;;;;4960975;28;20118;-65
2021/11/28 09:54:46;;;;;;;20.70;13.88;;;2.90;99.90;;;;;;4957595;28;20165;-65
2021/11/28 09:57:19;;;;;;;23.20;13.43;;;2.90;99.90;;;;;;4955295;28;20091;-65
2021/11/28 09:59:50;;;;;;;18.88;13.48;;;2.80;99.90;;;;;;4958817;28;20042;-64
2021/11/28 10:02:23;;;;;;;24.40;13.75;;;2.70;99.90;;;;;;4959117;28;20047;-65
2021/11/28 10:04:55;;;;;;;20.15;14.35;;;2.80;99.90;;;;;;4958565;28;20062;-64
2021/11/28 10:07:22;;;;;;;25.33;15.27;;;2.80;99.90;;;;;;4955191;28;20405;-66
2021/11/28 10:09:50;;;;;;;21.27;14.05;;;2.70;99.90;;;;;;4956554;28;20058;-65
2021/11/28 10:12:26;;;;;;;24.08;13.80;;;2.60;99.90;;;;;;4941102;28;20062;-66
2021/11/28 10:15:05;;;;;;;28.70;14.30;;;2.60;99.90;;;;;;4942707;28;20274;-66
2021/11/28 10:17:34;;;;;;;27.40;15.40;;;2.60;99.90;;;;;;4959638;28;20053;-66
2021/11/28 10:20:05;;;;;;;23.38;13.63;;;2.60;99.90;;;;;;4939791;28;20066;-66
2021/11/28 10:22:32;;;;;;;27.73;15.75;;;2.60;99.90;;;;;;4959442;28;20502;-67
2021/11/28 10:25:04;;;;;;;28.63;15.27;;;2.60;99.90;;;;;;4958427;28;20066;-67
2021/11/28 10:27:39;;;;;;;25.45;14.80;;;2.50;99.90;;;;;;4956877;28;20443;-66
2021/11/28 10:30:09;;;;;;;28.50;15.33;;;2.60;99.90;;;;;;4958068;28;20074;-67
2021/11/28 10:32:44;;;;;;;32.63;15.70;;;2.60;99.90;;;;;;4959891;28;20062;-67
2021/11/28 10:35:12;;;;;;;29.50;15.93;;;2.80;99.90;;;;;;4959358;28;20055;-66
2021/11/28 10:37:48;;;;;;;29.73;16.23;;;2.70;99.90;;;;;;4955509;28;20055;-65
2021/11/28 10:40:21;;;;;;;36.85;18.90;;;2.70;99.90;;;;;;4971533;28;20055;-67
2021/11/28 10:42:51;;;;;;;28.88;16.95;;;2.70;99.90;;;;;;4957037;28;20142;-66
2021/11/28 10:45:22;;;;;;;32.53;17.77;;;2.60;99.90;;;;;;4939759;28;20058;-67
2021/11/28 10:47:48;;;;;;;34.08;19.27;;;2.60;99.90;;;;;;4958146;28;20563;-68
2021/11/28 10:50:18;;;;;;;36.05;19.17;;;2.60;99.90;;;;;;4957827;28;20490;-68
2021/11/28 10:53:08;;;;;;;31.98;18.20;;;2.70;99.90;;;;;;4959383;28;20063;-69
2021/11/28 10:55:41;;;;;;;34.60;19.10;;;2.80;99.90;;;;;;4939464;28;20062;-67
2021/11/28 10:58:14;;;;;;;32.85;18.17;;;2.80;99.90;;;;;;4958756;28;20047;-68
2021/11/28 11:01:06;;;;;;;48.80;21.63;;;2.80;99.90;;;;;;4941931;28;20103;-68
2021/11/28 11:03:36;;;;;;;35.13;19.17;;;2.80;99.90;;;;;;4944651;28;20058;-68
2021/11/28 11:06:17;;;;;;;33.00;18.75;;;2.80;99.90;;;;;;4957259;28;20540;-68
2021/11/28 11:08:45;;;;;;;33.38;19.60;;;2.80;99.90;;;;;;4956618;28;20056;-67
2021/11/28 11:11:14;;;;;;;39.63;22.10;;;2.80;99.90;;;;;;4958820;28;20043;-67
2021/11/28 11:14:03;;;;;;;40.45;22.27;;;2.90;99.90;;;;;;4955265;28;20062;-67
2021/11/28 11:16:45;;;;;;;40.90;23.00;;;3.00;99.90;;;;;;4960957;28;20722;-68
2021/11/28 11:19:35;;;;;;;35.38;20.55;;;3.10;99.90;;;;;;4958879;28;20153;-68
2021/11/28 11:22:05;;;;;;;39.17;19.85;;;3.10;99.90;;;;;;4960118;28;20385;-69
2021/11/28 11:24:37;;;;;;;41.70;23.40;;;3.10;99.90;;;;;;4961161;28;20055;-67
2021/11/28 11:27:14;;;;;;;36.22;21.08;;;3.20;99.90;;;;;;4962094;28;20042;-68
2021/11/28 11:29:49;;;;;;;44.72;22.63;;;3.20;99.90;;;;;;4986386;28;20492;-68
2021/11/28 11:32:17;;;;;;;;;;;3.30;99.90;;;;;;4958432;28;20405;-69
2021/11/28 11:34:49;;;;;;;35.47;20.42;;;3.30;99.90;;;;;;4961936;28;20303;-70
2021/11/28 11:37:18;;;;;;;43.88;22.02;;;3.40;99.90;;;;;;4957499;28;20491;-69
2021/11/28 11:39:47;;;;;;;39.72;22.60;;;3.60;99.90;;;;;;4964441;28;20047;-67
2021/11/28 11:42:20;;;;;;;29.90;18.70;;;3.80;99.90;;;;;;4943467;28;20043;-69
2021/11/28 11:44:48;;;;;;;31.20;18.83;;;4.00;99.90;;;;;;4959857;28;20412;-68
2021/11/28 11:47:17;;;;;;;37.22;22.30;;;4.10;99.90;;;;;;4956923;28;20057;-69
2021/11/28 11:49:45;;;;;;;38.53;21.55;;;4.20;99.90;;;;;;4943542;28;20054;-67
2021/11/28 11:52:13;;;;;;;38.05;21.00;;;4.10;99.90;;;;;;4960995;28;20583;-69
2021/11/28 11:54:50;;;;;;;32.92;19.67;;;4.00;99.90;;;;;;4959523;28;20057;-68
2021/11/28 11:57:21;;;;;;;30.48;19.80;;;4.10;99.90;;;;;;4958408;28;20051;-67
2021/11/28 12:00:07;;;;;;;33.13;18.60;;;3.90;99.90;;;;;;4944316;28;20039;-68
2021/11/28 12:02:42;;;;;;;35.78;21.67;;;3.80;99.90;;;;;;4943835;28;20043;-68
2021/11/28 12:05:30;;;;;;;33.92;20.20;;;3.70;99.90;;;;;;4945939;28;20069;-67
2021/11/28 12:08:00;;;;;;;39.53;23.33;;;3.70;99.90;;;;;;4940190;28;20425;-69
2021/11/28 12:10:43;;;;;;;47.22;24.33;;;3.70;99.90;;;;;;4933508;28;20834;-68
2021/11/28 12:13:14;;;;;;;38.70;23.70;;;3.70;99.90;;;;;;4960601;28;20326;-69
2021/11/28 12:15:51;;;;;;;42.90;25.08;;;3.70;99.90;;;;;;4960414;28;20047;-68
2021/11/28 12:18:38;;;;;;;54.47;28.00;;;3.70;99.90;;;;;;4960048;28;20085;-69
2021/11/28 12:21:06;;;;;;;44.10;25.42;;;3.70;99.90;;;;;;4959174;28;20456;-68
2021/11/28 12:23:45;;;;;;;46.13;26.83;;;3.70;99.90;;;;;;4961507;28;20062;-68
2021/11/28 12:26:28;;;;;;;46.67;26.75;;;3.70;99.90;;;;;;4973425;28;20463;-69
2021/11/28 12:29:15;;;;;;;46.40;25.10;;;3.70;99.90;;;;;;4962997;28;20054;-69
2021/11/28 12:31:47;;;;;;;50.47;25.65;;;3.60;99.90;;;;;;4955487;28;20530;-68
2021/11/28 12:34:17;;;;;;;50.45;27.65;;;3.70;99.90;;;;;;4962243;28;20059;-68
2021/11/28 12:36:47;;;;;;;51.58;28.42;;;3.50;99.90;;;;;;4962269;28;20064;-69
2021/11/28 12:39:21;;;;;;;50.47;27.00;;;3.50;99.90;;;;;;4961299;28;20061;-67
2021/11/28 12:41:50;;;;;;;48.17;25.30;;;3.50;99.90;;;;;;4958276;28;20061;-69
2021/11/28 12:44:25;;;;;;;54.33;28.48;;;3.50;99.90;;;;;;4962621;28;20101;-67
2021/11/28 12:46:57;;;;;;;47.60;26.80;;;3.50;99.90;;;;;;4961891;28;20117;-71
2021/11/28 12:49:52;;;;;;;47.65;26.88;;;3.50;99.90;;;;;;4958914;28;20059;-70
2021/11/28 12:52:37;;;;;;;48.47;27.27;;;3.50;99.90;;;;;;4958195;28;20069;-69
2021/11/28 12:57:31;;;;;;;52.83;25.70;;;3.60;99.90;;;;;;4958193;28;20467;-68
2021/11/28 13:00:19;;;;;;;42.85;23.83;;;3.50;99.90;;;;;;4960436;28;20476;-72
2021/11/28 13:02:50;;;;;;;51.75;25.98;;;3.50;99.90;;;;;;4962562;28;20385;-69
2021/11/28 13:05:35;;;;;;;47.65;24.95;;;3.40;99.90;;;;;;4944469;28;20062;-68
2021/11/28 13:08:03;;;;;;;55.40;29.55;;;3.40;99.90;;;;;;4955351;28;20058;-69
2021/11/28 13:10:38;;;;;;;48.30;27.90;;;3.50;99.90;;;;;;4976987;28;20057;-71
2021/11/28 13:13:14;;;;;;;48.30;28.20;;;3.50;99.90;;;;;;4975102;28;20435;-69